Kenilworth, Illinois
Current Conditions -  °F | °C
As of 10:52 PM on Friday 19 Dec 2014 (Local Time) from KPWK Reporting Station
Overcast Overcast  
Wind Chill: 29°   Ceiling: 2700
Heat Index: 29°   Visibility: 10mi
Dew Point: 21°   Wind: 3mph
Humidity: 72%   Direction: 30°NNE
Pressure: 30.28"   Gusts: NA
Location:  42.09°N, 87.72°W
Report Text: KPWK 200452Z AUTO 03003KT 10SM OVC027 M02/M06 A3028 RMK AO2 SLP261 T10171061
Loading
Personal Weather Stations






























Interactive Weather Map New forecast layout! Learn more

10-Day Weather Forecast

Advertisements
Track Severe Weather on mobile